Terminal Aerodrome Forecast
Issued by NWS Greer, SC

Current Version | Previous Version | Text Only | Print | Product List | Glossary On
Versions: 1 2 3 4 5 6 7 8 9 10 11 12 13 14 15 16 17 18 19
000
FTUS42 KGSP 280534
TAFGSP
TAF
KGSP 280534Z 2806/2906 21004KT P6SM -SHRA VCTS BKN090CB
     FM280700 21004KT P6SM VCSH BKN035
     FM281000 00000KT 4SM BR VCSH OVC016
     FM281300 35005KT P6SM -SHRA VCTS BKN035CB
     FM281900 03004KT P6SM BKN100
     FM290000 20004KT P6SM BKN250=

USA.gov is the U.S. government's official web portal to all federal, state and local government web resources and services.